sensor_id;sensor_type;location;lat;lon;timestamp;pressure;altitude;pressure_sealevel;temperature;humidity
28000;BME280;15328;50.860;10.562;2023-04-19T00:04:22;97391.22;;;9.36;76.49
28000;BME280;15328;50.860;10.562;2023-04-19T00:09:23;97379.41;;;9.38;75.56
28000;BME280;15328;50.860;10.562;2023-04-19T00:14:23;97376.75;;;9.38;75.43
28000;BME280;15328;50.860;10.562;2023-04-19T00:19:23;97375.91;;;9.38;74.82
28000;BME280;15328;50.860;10.562;2023-04-19T00:24:23;97380.16;;;9.32;74.63
28000;BME280;15328;50.860;10.562;2023-04-19T00:29:24;97377.22;;;9.27;74.23
28000;BME280;15328;50.860;10.562;2023-04-19T00:34:24;97375.31;;;9.21;73.98
28000;BME280;15328;50.860;10.562;2023-04-19T00:39:25;97373.50;;;9.07;73.71
28000;BME280;15328;50.860;10.562;2023-04-19T00:44:26;97375.34;;;9.06;73.70
28000;BME280;15328;50.860;10.562;2023-04-19T00:49:26;97370.13;;;8.98;72.63
28000;BME280;15328;50.860;10.562;2023-04-19T00:54:27;97371.69;;;8.92;72.52
28000;BME280;15328;50.860;10.562;2023-04-19T00:59:28;97371.88;;;8.91;72.53
28000;BME280;15328;50.860;10.562;2023-04-19T01:04:29;97365.47;;;8.85;71.88
28000;BME280;15328;50.860;10.562;2023-04-19T01:09:29;97366.41;;;8.78;71.33
28000;BME280;15328;50.860;10.562;2023-04-19T01:14:30;97359.91;;;8.80;71.55
28000;BME280;15328;50.860;10.562;2023-04-19T01:19:30;97355.69;;;8.71;71.30
28000;BME280;15328;50.860;10.562;2023-04-19T01:24:30;97356.88;;;8.68;71.39
28000;BME280;15328;50.860;10.562;2023-04-19T01:29:31;97362.19;;;8.68;71.33
28000;BME280;15328;50.860;10.562;2023-04-19T01:34:31;97352.31;;;8.62;71.47
28000;BME280;15328;50.860;10.562;2023-04-19T01:39:31;97342.25;;;8.58;71.35
28000;BME280;15328;50.860;10.562;2023-04-19T01:44:32;97352.88;;;8.58;71.18
28000;BME280;15328;50.860;10.562;2023-04-19T01:49:32;97345.84;;;8.50;71.03
28000;BME280;15328;50.860;10.562;2023-04-19T01:54:32;97354.13;;;8.47;71.07
28000;BME280;15328;50.860;10.562;2023-04-19T01:59:33;97349.56;;;8.56;70.80
28000;BME280;15328;50.860;10.562;2023-04-19T02:04:33;97348.47;;;8.50;70.96
28000;BME280;15328;50.860;10.562;2023-04-19T02:09:35;97346.66;;;8.51;70.87
28000;BME280;15328;50.860;10.562;2023-04-19T02:14:35;97336.38;;;8.48;70.85
28000;BME280;15328;50.860;10.562;2023-04-19T02:19:36;97328.28;;;8.49;70.52
28000;BME280;15328;50.860;10.562;2023-04-19T02:24:36;97326.25;;;8.51;70.76
28000;BME280;15328;50.860;10.562;2023-04-19T02:29:37;97320.59;;;8.54;70.16
28000;BME280;15328;50.860;10.562;2023-04-19T02:34:38;97313.72;;;8.45;69.59
28000;BME280;15328;50.860;10.562;2023-04-19T02:39:38;97309.69;;;8.34;69.27
28000;BME280;15328;50.860;10.562;2023-04-19T02:44:40;97308.75;;;8.27;69.22
28000;BME280;15328;50.860;10.562;2023-04-19T02:49:41;97300.16;;;8.25;68.87
28000;BME280;15328;50.860;10.562;2023-04-19T02:54:41;97302.06;;;8.17;68.81
28000;BME280;15328;50.860;10.562;2023-04-19T02:59:42;97305.72;;;8.16;68.83
28000;BME280;15328;50.860;10.562;2023-04-19T03:04:42;97283.31;;;8.18;68.54
28000;BME280;15328;50.860;10.562;2023-04-19T03:09:42;97281.03;;;8.15;68.27
28000;BME280;15328;50.860;10.562;2023-04-19T03:14:43;97289.81;;;8.01;67.78
28000;BME280;15328;50.860;10.562;2023-04-19T03:19:43;97283.09;;;7.90;67.22
28000;BME280;15328;50.860;10.562;2023-04-19T03:24:43;97289.94;;;7.85;67.49
28000;BME280;15328;50.860;10.562;2023-04-19T03:29:44;97283.91;;;7.76;67.17
28000;BME280;15328;50.860;10.562;2023-04-19T03:34:45;97278.22;;;7.64;68.36
28000;BME280;15328;50.860;10.562;2023-04-19T03:39:45;97285.03;;;7.59;67.79
28000;BME280;15328;50.860;10.562;2023-04-19T03:44:46;97271.78;;;7.44;67.62
28000;BME280;15328;50.860;10.562;2023-04-19T03:49:46;97269.13;;;7.44;67.65
28000;BME280;15328;50.860;10.562;2023-04-19T03:54:46;97275.72;;;7.48;67.65
28000;BME280;15328;50.860;10.562;2023-04-19T03:59:47;97278.81;;;7.52;68.04
28000;BME280;15328;50.860;10.562;2023-04-19T04:04:52;97273.88;;;7.49;67.79
28000;BME280;15328;50.860;10.562;2023-04-19T04:09:53;97286.84;;;7.43;68.31
28000;BME280;15328;50.860;10.562;2023-04-19T04:14:53;97275.91;;;7.47;68.51
28000;BME280;15328;50.860;10.562;2023-04-19T04:19:53;97278.81;;;7.52;68.37
28000;BME280;15328;50.860;10.562;2023-04-19T04:24:54;97284.13;;;7.52;68.59
28000;BME280;15328;50.860;10.562;2023-04-19T04:29:57;97279.00;;;7.50;68.50
28000;BME280;15328;50.860;10.562;2023-04-19T04:34:57;97290.66;;;7.41;67.34
28000;BME280;15328;50.860;10.562;2023-04-19T04:39:58;97284.78;;;7.31;67.20
28000;BME280;15328;50.860;10.562;2023-04-19T04:44:58;97291.25;;;7.28;67.21
28000;BME280;15328;50.860;10.562;2023-04-19T04:50:00;97291.31;;;7.20;66.55
28000;BME280;15328;50.860;10.562;2023-04-19T04:55:01;97301.44;;;7.08;66.18
28000;BME280;15328;50.860;10.562;2023-04-19T05:00:03;97301.69;;;6.99;65.25
28000;BME280;15328;50.860;10.562;2023-04-19T05:05:04;97303.09;;;6.87;66.09
28000;BME280;15328;50.860;10.562;2023-04-19T05:10:06;97302.56;;;6.83;65.88
28000;BME280;15328;50.860;10.562;2023-04-19T05:15:07;97296.16;;;6.77;65.70
28000;BME280;15328;50.860;10.562;2023-04-19T05:20:08;97298.28;;;6.82;65.45
28000;BME280;15328;50.860;10.562;2023-04-19T05:25:09;97295.69;;;6.74;65.44
28000;BME280;15328;50.860;10.562;2023-04-19T05:30:09;97281.59;;;6.81;64.77
28000;BME280;15328;50.860;10.562;2023-04-19T05:35:10;97289.88;;;6.78;64.38
28000;BME280;15328;50.860;10.562;2023-04-19T05:40:11;97277.66;;;6.77;64.26
28000;BME280;15328;50.860;10.562;2023-04-19T05:45:12;97276.66;;;6.78;64.11
28000;BME280;15328;50.860;10.562;2023-04-19T05:50:14;97264.78;;;6.74;64.77
28000;BME280;15328;50.860;10.562;2023-04-19T05:55:17;97267.38;;;6.82;64.42
28000;BME280;15328;50.860;10.562;2023-04-19T06:00:17;97269.41;;;6.72;64.42
28000;BME280;15328;50.860;10.562;2023-04-19T06:05:18;97265.97;;;6.72;64.10
28000;BME280;15328;50.860;10.562;2023-04-19T06:10:18;97267.44;;;6.74;64.01
28000;BME280;15328;50.860;10.562;2023-04-19T06:15:18;97276.88;;;6.69;62.59
28000;BME280;15328;50.860;10.562;2023-04-19T06:20:19;97279.69;;;6.67;62.77
28000;BME280;15328;50.860;10.562;2023-04-19T06:25:20;97283.47;;;6.73;62.28
28000;BME280;15328;50.860;10.562;2023-04-19T06:30:21;97286.63;;;6.68;61.93
28000;BME280;15328;50.860;10.562;2023-04-19T06:35:21;97288.81;;;6.57;60.36
28000;BME280;15328;50.860;10.562;2023-04-19T06:40:22;97289.00;;;6.55;60.98
28000;BME280;15328;50.860;10.562;2023-04-19T06:45:22;97285.69;;;6.61;60.97
28000;BME280;15328;50.860;10.562;2023-04-19T06:50:23;97293.28;;;6.56;59.88
28000;BME280;15328;50.860;10.562;2023-04-19T06:55:23;97294.22;;;6.71;59.81
28000;BME280;15328;50.860;10.562;2023-04-19T07:00:23;97291.56;;;6.71;58.76
28000;BME280;15328;50.860;10.562;2023-04-19T07:05:24;97286.81;;;6.67;58.02
28000;BME280;15328;50.860;10.562;2023-04-19T07:10:24;97286.28;;;6.71;57.91
28000;BME280;15328;50.860;10.562;2023-04-19T07:15:25;97292.06;;;6.75;57.64
28000;BME280;15328;50.860;10.562;2023-04-19T07:20:25;97285.81;;;6.99;57.09
28000;BME280;15328;50.860;10.562;2023-04-19T07:25:25;97287.22;;;7.09;56.44
28000;BME280;15328;50.860;10.562;2023-04-19T07:30:26;97282.19;;;7.23;56.24
28000;BME280;15328;50.860;10.562;2023-04-19T07:35:26;97295.47;;;7.37;54.57
28000;BME280;15328;50.860;10.562;2023-04-19T07:40:27;97288.06;;;7.33;53.51
28000;BME280;15328;50.860;10.562;2023-04-19T07:45:29;97287.88;;;7.34;54.13
28000;BME280;15328;50.860;10.562;2023-04-19T07:50:29;97280.75;;;7.58;54.32
28000;BME280;15328;50.860;10.562;2023-04-19T07:55:30;97275.34;;;7.89;53.35
28000;BME280;15328;50.860;10.562;2023-04-19T08:00:30;97275.38;;;8.18;52.77
28000;BME280;15328;50.860;10.562;2023-04-19T08:05:33;97269.94;;;8.49;52.69
28000;BME280;15328;50.860;10.562;2023-04-19T08:10:34;97265.69;;;8.70;50.53
28000;BME280;15328;50.860;10.562;2023-04-19T08:15:35;97261.88;;;8.93;50.12
28000;BME280;15328;50.860;10.562;2023-04-19T08:20:35;97261.41;;;9.05;49.47
28000;BME280;15328;50.860;10.562;2023-04-19T08:25:36;97259.06;;;9.16;49.11
28000;BME280;15328;50.860;10.562;2023-04-19T08:30:36;97260.81;;;9.30;47.02
28000;BME280;15328;50.860;10.562;2023-04-19T08:35:37;97256.47;;;9.44;46.32
28000;BME280;15328;50.860;10.562;2023-04-19T08:40:52;97254.66;;;9.45;44.50
28000;BME280;15328;50.860;10.562;2023-04-19T08:45:53;97250.34;;;9.44;45.48
28000;BME280;15328;50.860;10.562;2023-04-19T08:50:56;97256.41;;;9.59;46.01
28000;BME280;15328;50.860;10.562;2023-04-19T08:55:58;97261.75;;;9.87;46.22
28000;BME280;15328;50.860;10.562;2023-04-19T09:01:02;97241.91;;;10.17;44.20
28000;BME280;15328;50.860;10.562;2023-04-19T09:06:03;97230.63;;;10.43;44.46
28000;BME280;15328;50.860;10.562;2023-04-19T09:11:04;97232.63;;;10.89;43.92
28000;BME280;15328;50.860;10.562;2023-04-19T09:16:05;97219.78;;;11.06;40.73
28000;BME280;15328;50.860;10.562;2023-04-19T09:21:07;97228.22;;;11.49;40.71
28000;BME280;15328;50.860;10.562;2023-04-19T09:26:07;97214.31;;;12.00;39.00
28000;BME280;15328;50.860;10.562;2023-04-19T09:31:11;97196.09;;;12.61;38.64
28000;BME280;15328;50.860;10.562;2023-04-19T09:36:29;97198.53;;;13.39;37.49
28000;BME280;15328;50.860;10.562;2023-04-19T09:41:30;97203.50;;;14.65;36.97
28000;BME280;15328;50.860;10.562;2023-04-19T09:46:34;97194.44;;;16.03;33.05
28000;BME280;15328;50.860;10.562;2023-04-19T09:51:45;97195.25;;;17.19;31.12
28000;BME280;15328;50.860;10.562;2023-04-19T09:56:46;97189.84;;;17.64;29.89
28000;BME280;15328;50.860;10.562;2023-04-19T10:01:52;97197.72;;;17.82;26.87
28000;BME280;15328;50.860;10.562;2023-04-19T10:06:53;97191.38;;;18.66;26.32
28000;BME280;15328;50.860;10.562;2023-04-19T10:11:55;97184.56;;;19.07;25.68
28000;BME280;15328;50.860;10.562;2023-04-19T10:16:57;97175.63;;;19.01;24.87
28000;BME280;15328;50.860;10.562;2023-04-19T10:21:59;97172.88;;;18.74;22.43
28000;BME280;15328;50.860;10.562;2023-04-19T10:32:12;97157.50;;;17.59;26.50
28000;BME280;15328;50.860;10.562;2023-04-19T10:37:13;97143.19;;;17.25;27.61
28000;BME280;15328;50.860;10.562;2023-04-19T10:42:13;97134.53;;;17.68;27.83
28000;BME280;15328;50.860;10.562;2023-04-19T10:47:40;97138.09;;;17.40;26.83
28000;BME280;15328;50.860;10.562;2023-04-19T10:52:40;97124.94;;;16.42;28.10
28000;BME280;15328;50.860;10.562;2023-04-19T10:58:00;97127.25;;;16.10;27.94
28000;BME280;15328;50.860;10.562;2023-04-19T11:08:43;97102.41;;;16.43;28.51
28000;BME280;15328;50.860;10.562;2023-04-19T11:13:46;97105.19;;;16.88;28.09
28000;BME280;15328;50.860;10.562;2023-04-19T11:18:47;97108.66;;;17.17;26.34
28000;BME280;15328;50.860;10.562;2023-04-19T11:23:47;97091.00;;;17.38;26.77
28000;BME280;15328;50.860;10.562;2023-04-19T11:28:49;97094.31;;;17.61;25.86
28000;BME280;15328;50.860;10.562;2023-04-19T11:33:50;97074.03;;;17.54;27.75
28000;BME280;15328;50.860;10.562;2023-04-19T11:38:52;97069.16;;;17.34;28.01
28000;BME280;15328;50.860;10.562;2023-04-19T11:43:52;97072.09;;;16.99;28.49
28000;BME280;15328;50.860;10.562;2023-04-19T11:48:53;97064.41;;;16.34;29.48
28000;BME280;15328;50.860;10.562;2023-04-19T11:53:54;97053.97;;;16.49;29.58
28000;BME280;15328;50.860;10.562;2023-04-19T11:58:56;97065.22;;;15.83;28.51
28000;BME280;15328;50.860;10.562;2023-04-19T12:03:57;97036.94;;;16.03;29.74
28000;BME280;15328;50.860;10.562;2023-04-19T12:08:57;97043.34;;;15.62;30.02
28000;BME280;15328;50.860;10.562;2023-04-19T12:14:11;97049.94;;;15.13;31.27
28000;BME280;15328;50.860;10.562;2023-04-19T12:19:17;97047.13;;;14.55;31.16
28000;BME280;15328;50.860;10.562;2023-04-19T12:24:19;97045.41;;;14.60;31.90
28000;BME280;15328;50.860;10.562;2023-04-19T12:29:19;97033.88;;;15.13;31.39
28000;BME280;15328;50.860;10.562;2023-04-19T12:34:20;97015.31;;;15.00;29.50
28000;BME280;15328;50.860;10.562;2023-04-19T12:39:20;97015.38;;;14.70;31.06
28000;BME280;15328;50.860;10.562;2023-04-19T12:44:21;97010.63;;;14.42;31.64
28000;BME280;15328;50.860;10.562;2023-04-19T12:49:22;97025.09;;;14.22;32.74
28000;BME280;15328;50.860;10.562;2023-04-19T12:54:23;97016.91;;;13.87;33.08
28000;BME280;15328;50.860;10.562;2023-04-19T12:59:23;97020.19;;;13.71;33.09
28000;BME280;15328;50.860;10.562;2023-04-19T13:04:24;97017.66;;;13.58;33.58
28000;BME280;15328;50.860;10.562;2023-04-19T13:09:26;97012.06;;;13.23;33.22
28000;BME280;15328;50.860;10.562;2023-04-19T13:14:27;97004.44;;;13.45;33.08
28000;BME280;15328;50.860;10.562;2023-04-19T13:19:28;97011.53;;;13.33;32.83
28000;BME280;15328;50.860;10.562;2023-04-19T13:24:28;97002.63;;;13.14;32.75
28000;BME280;15328;50.860;10.562;2023-04-19T13:29:28;96999.66;;;13.04;33.04
28000;BME280;15328;50.860;10.562;2023-04-19T13:34:29;96985.94;;;13.25;32.87
28000;BME280;15328;50.860;10.562;2023-04-19T13:39:30;96982.28;;;12.94;31.47
28000;BME280;15328;50.860;10.562;2023-04-19T13:44:31;96974.50;;;12.93;31.94
28000;BME280;15328;50.860;10.562;2023-04-19T13:49:31;96971.25;;;12.91;32.41
28000;BME280;15328;50.860;10.562;2023-04-19T13:54:31;96959.81;;;13.27;32.47
28000;BME280;15328;50.860;10.562;2023-04-19T13:59:32;96952.31;;;13.72;31.95
28000;BME280;15328;50.860;10.562;2023-04-19T14:04:32;96963.00;;;13.54;31.58
28000;BME280;15328;50.860;10.562;2023-04-19T14:09:33;96960.78;;;13.08;31.01
28000;BME280;15328;50.860;10.562;2023-04-19T14:14:33;96954.63;;;12.64;32.37
28000;BME280;15328;50.860;10.562;2023-04-19T14:19:34;96952.31;;;12.92;32.88
28000;BME280;15328;50.860;10.562;2023-04-19T14:24:34;96929.41;;;13.03;32.72
28000;BME280;15328;50.860;10.562;2023-04-19T14:29:34;96927.56;;;13.04;31.01
28000;BME280;15328;50.860;10.562;2023-04-19T14:34:35;96896.84;;;12.94;30.35
28000;BME280;15328;50.860;10.562;2023-04-19T14:39:35;96904.03;;;12.94;31.60
28000;BME280;15328;50.860;10.562;2023-04-19T14:44:36;96894.47;;;13.05;30.95
28000;BME280;15328;50.860;10.562;2023-04-19T14:49:36;96901.28;;;13.00;30.12
28000;BME280;15328;50.860;10.562;2023-04-19T14:54:37;96917.94;;;12.78;31.22
28000;BME280;15328;50.860;10.562;2023-04-19T14:59:37;96914.59;;;12.39;31.39
28000;BME280;15328;50.860;10.562;2023-04-19T15:04:37;96927.69;;;12.16;32.38
28000;BME280;15328;50.860;10.562;2023-04-19T15:09:38;96922.69;;;11.94;33.38
28000;BME280;15328;50.860;10.562;2023-04-19T15:14:39;96912.69;;;11.76;34.98
28000;BME280;15328;50.860;10.562;2023-04-19T15:19:39;96909.88;;;11.78;35.69
28000;BME280;15328;50.860;10.562;2023-04-19T15:24:40;96912.47;;;11.91;35.40
28000;BME280;15328;50.860;10.562;2023-04-19T15:29:40;96919.50;;;11.79;35.70
28000;BME280;15328;50.860;10.562;2023-04-19T15:34:40;96922.94;;;11.35;36.00
28000;BME280;15328;50.860;10.562;2023-04-19T15:39:41;96917.88;;;11.20;37.87
28000;BME280;15328;50.860;10.562;2023-04-19T15:44:42;96913.44;;;10.94;39.16
28000;BME280;15328;50.860;10.562;2023-04-19T15:49:43;96901.78;;;10.89;39.22
28000;BME280;15328;50.860;10.562;2023-04-19T15:54:46;96899.75;;;10.84;39.80
28000;BME280;15328;50.860;10.562;2023-04-19T15:59:46;96897.25;;;10.89;39.87
28000;BME280;15328;50.860;10.562;2023-04-19T16:04:46;96895.22;;;10.84;39.22
28000;BME280;15328;50.860;10.562;2023-04-19T16:09:47;96887.69;;;10.75;39.67
28000;BME280;15328;50.860;10.562;2023-04-19T16:14:47;96881.75;;;10.73;39.18
28000;BME280;15328;50.860;10.562;2023-04-19T16:19:48;96878.09;;;10.54;39.93
28000;BME280;15328;50.860;10.562;2023-04-19T16:25:01;96878.09;;;10.54;39.73
28000;BME280;15328;50.860;10.562;2023-04-19T16:30:01;96869.69;;;10.64;39.50
28000;BME280;15328;50.860;10.562;2023-04-19T16:35:06;96866.00;;;10.71;38.66
28000;BME280;15328;50.860;10.562;2023-04-19T16:40:09;96877.03;;;10.81;39.72
28000;BME280;15328;50.860;10.562;2023-04-19T16:45:09;96883.75;;;10.97;39.90
28000;BME280;15328;50.860;10.562;2023-04-19T16:50:10;96882.50;;;10.93;39.63
28000;BME280;15328;50.860;10.562;2023-04-19T16:55:11;96877.19;;;10.93;40.16
28000;BME280;15328;50.860;10.562;2023-04-19T17:00:12;96859.44;;;10.80;39.73
28000;BME280;15328;50.860;10.562;2023-04-19T17:05:13;96859.22;;;10.82;40.58
28000;BME280;15328;50.860;10.562;2023-04-19T17:10:15;96860.44;;;10.79;40.05
28000;BME280;15328;50.860;10.562;2023-04-19T17:15:15;96856.78;;;10.61;39.56
28000;BME280;15328;50.860;10.562;2023-04-19T17:20:15;96850.25;;;10.63;40.36
28000;BME280;15328;50.860;10.562;2023-04-19T17:25:19;96851.91;;;10.58;41.15
28000;BME280;15328;50.860;10.562;2023-04-19T17:30:20;96866.66;;;10.47;42.01
28000;BME280;15328;50.860;10.562;2023-04-19T17:35:28;96864.59;;;10.29;42.71
28000;BME280;15328;50.860;10.562;2023-04-19T17:40:34;96855.41;;;10.25;43.00
28000;BME280;15328;50.860;10.562;2023-04-19T17:45:37;96849.44;;;10.10;43.11
28000;BME280;15328;50.860;10.562;2023-04-19T17:50:37;96842.09;;;9.99;43.24
28000;BME280;15328;50.860;10.562;2023-04-19T17:55:41;96847.41;;;9.99;44.08
28000;BME280;15328;50.860;10.562;2023-04-19T18:00:41;96840.88;;;9.88;44.95
28000;BME280;15328;50.860;10.562;2023-04-19T18:05:44;96837.19;;;9.96;45.27
28000;BME280;15328;50.860;10.562;2023-04-19T18:10:47;96840.84;;;9.81;45.40
28000;BME280;15328;50.860;10.562;2023-04-19T18:15:47;96838.19;;;9.75;46.06
28000;BME280;15328;50.860;10.562;2023-04-19T18:20:48;96840.44;;;9.71;46.38
28000;BME280;15328;50.860;10.562;2023-04-19T18:25:53;96830.41;;;9.67;46.25
28000;BME280;15328;50.860;10.562;2023-04-19T18:30:53;96824.66;;;9.50;46.20
28000;BME280;15328;50.860;10.562;2023-04-19T18:35:54;96828.94;;;9.38;46.32
28000;BME280;15328;50.860;10.562;2023-04-19T18:40:54;96825.19;;;9.25;46.57
28000;BME280;15328;50.860;10.562;2023-04-19T18:45:55;96823.13;;;9.14;46.90
28000;BME280;15328;50.860;10.562;2023-04-19T18:50:56;96822.31;;;9.07;46.97
28000;BME280;15328;50.860;10.562;2023-04-19T18:55:56;96820.19;;;8.96;47.56
28000;BME280;15328;50.860;10.562;2023-04-19T19:00:57;96817.72;;;8.88;47.69
28000;BME280;15328;50.860;10.562;2023-04-19T19:05:57;96824.88;;;8.87;48.10
28000;BME280;15328;50.860;10.562;2023-04-19T19:10:58;96828.56;;;8.93;47.82
28000;BME280;15328;50.860;10.562;2023-04-19T19:15:58;96840.22;;;8.98;47.17
28000;BME280;15328;50.860;10.562;2023-04-19T19:20:58;96831.84;;;9.02;45.94
28000;BME280;15328;50.860;10.562;2023-04-19T19:25:59;96820.22;;;9.03;44.98
28000;BME280;15328;50.860;10.562;2023-04-19T19:31:00;96821.69;;;9.12;44.97
28000;BME280;15328;50.860;10.562;2023-04-19T19:36:00;96831.69;;;9.10;44.99
28000;BME280;15328;50.860;10.562;2023-04-19T19:41:04;96831.22;;;8.99;44.36
28000;BME280;15328;50.860;10.562;2023-04-19T19:46:04;96824.88;;;8.94;43.88
28000;BME280;15328;50.860;10.562;2023-04-19T19:51:04;96824.50;;;8.97;43.10
28000;BME280;15328;50.860;10.562;2023-04-19T19:56:05;96854.13;;;8.66;42.51
28000;BME280;15328;50.860;10.562;2023-04-19T20:01:05;96854.56;;;8.70;43.08
28000;BME280;15328;50.860;10.562;2023-04-19T20:06:06;96858.75;;;8.51;43.23
28000;BME280;15328;50.860;10.562;2023-04-19T20:11:07;96883.34;;;8.45;44.67
28000;BME280;15328;50.860;10.562;2023-04-19T20:16:08;96872.59;;;8.25;45.87
28000;BME280;15328;50.860;10.562;2023-04-19T20:21:09;96872.44;;;7.84;47.32
28000;BME280;15328;50.860;10.562;2023-04-19T20:26:09;96869.72;;;7.56;48.97
28000;BME280;15328;50.860;10.562;2023-04-19T20:31:09;96870.50;;;7.71;48.44
28000;BME280;15328;50.860;10.562;2023-04-19T20:36:10;96853.47;;;7.59;49.12
28000;BME280;15328;50.860;10.562;2023-04-19T20:41:12;96864.63;;;7.54;49.40
28000;BME280;15328;50.860;10.562;2023-04-19T20:46:13;96855.88;;;7.39;49.88
28000;BME280;15328;50.860;10.562;2023-04-19T20:51:13;96845.38;;;7.24;50.68
28000;BME280;15328;50.860;10.562;2023-04-19T20:56:14;96847.81;;;7.26;50.63
28000;BME280;15328;50.860;10.562;2023-04-19T21:01:14;96833.50;;;7.20;51.06
28000;BME280;15328;50.860;10.562;2023-04-19T21:06:16;96832.25;;;7.16;51.11
28000;BME280;15328;50.860;10.562;2023-04-19T21:11:16;96828.88;;;7.07;51.16
28000;BME280;15328;50.860;10.562;2023-04-19T21:16:17;96823.16;;;7.04;52.37
28000;BME280;15328;50.860;10.562;2023-04-19T21:21:17;96816.44;;;6.87;52.84
28000;BME280;15328;50.860;10.562;2023-04-19T21:26:17;96807.56;;;6.94;52.47
28000;BME280;15328;50.860;10.562;2023-04-19T21:31:17;96800.91;;;6.83;53.27
28000;BME280;15328;50.860;10.562;2023-04-19T21:36:18;96793.31;;;6.59;54.37
28000;BME280;15328;50.860;10.562;2023-04-19T21:41:18;96797.59;;;6.60;54.47
28000;BME280;15328;50.860;10.562;2023-04-19T21:46:18;96800.16;;;6.54;55.28
28000;BME280;15328;50.860;10.562;2023-04-19T21:51:19;96791.50;;;6.45;56.26
28000;BME280;15328;50.860;10.562;2023-04-19T21:56:19;96789.69;;;6.31;57.26
28000;BME280;15328;50.860;10.562;2023-04-19T22:01:20;96789.41;;;6.26;57.42
28000;BME280;15328;50.860;10.562;2023-04-19T22:06:20;96785.41;;;6.15;58.27
28000;BME280;15328;50.860;10.562;2023-04-19T22:11:21;96771.38;;;6.14;58.81
28000;BME280;15328;50.860;10.562;2023-04-19T22:16:28;96771.97;;;6.02;59.88
28000;BME280;15328;50.860;10.562;2023-04-19T22:21:31;96766.16;;;5.92;60.39
28000;BME280;15328;50.860;10.562;2023-04-19T22:26:32;96762.38;;;5.86;61.48
28000;BME280;15328;50.860;10.562;2023-04-19T22:31:33;96750.13;;;5.93;60.81
28000;BME280;15328;50.860;10.562;2023-04-19T22:36:34;96742.56;;;5.90;60.57
28000;BME280;15328;50.860;10.562;2023-04-19T22:41:34;96739.19;;;5.96;60.40
28000;BME280;15328;50.860;10.562;2023-04-19T22:46:35;96729.97;;;5.77;61.40
28000;BME280;15328;50.860;10.562;2023-04-19T22:51:36;96727.75;;;5.66;61.47
28000;BME280;15328;50.860;10.562;2023-04-19T22:56:40;96722.28;;;5.68;61.40
28000;BME280;15328;50.860;10.562;2023-04-19T23:01:43;96721.94;;;5.56;61.98
28000;BME280;15328;50.860;10.562;2023-04-19T23:06:46;96721.75;;;5.57;62.19
28000;BME280;15328;50.860;10.562;2023-04-19T23:11:47;96705.88;;;5.43;62.62
28000;BME280;15328;50.860;10.562;2023-04-19T23:16:48;96691.03;;;5.27;63.25
28000;BME280;15328;50.860;10.562;2023-04-19T23:21:49;96698.94;;;5.27;63.34
28000;BME280;15328;50.860;10.562;2023-04-19T23:26:52;96695.19;;;5.21;63.51
28000;BME280;15328;50.860;10.562;2023-04-19T23:31:56;96694.41;;;5.13;64.21
28000;BME280;15328;50.860;10.562;2023-04-19T23:36:57;96678.31;;;5.08;63.98
28000;BME280;15328;50.860;10.562;2023-04-19T23:41:59;96669.31;;;5.17;64.46
28000;BME280;15328;50.860;10.562;2023-04-19T23:46:59;96659.22;;;5.06;64.92
28000;BME280;15328;50.860;10.562;2023-04-19T23:52:02;96660.47;;;4.95;65.17
28000;BME280;15328;50.860;10.562;2023-04-19T23:57:05;96648.38;;;5.01;64.79
